createdAt,value
2023-01-03T04:39:16.385Z,92497.84
2023-01-03T07:29:24.328Z,92591.78
2023-01-03T08:57:00.957Z,92649.09
2023-01-03T09:53:48.375Z,92681.28
2023-01-03T09:56:14.696Z,92691.75
2023-01-03T09:58:44.990Z,92694.34
2023-01-03T10:01:11.260Z,92699.53
2023-01-03T10:03:51.445Z,92698.50
2023-01-03T10:06:21.406Z,92694.81
2023-01-03T10:08:47.728Z,92692.25
2023-01-03T10:11:18.096Z,92688.56
2023-01-03T10:19:13.689Z,92690.69
2023-01-03T10:24:27.679Z,92688.06
2023-01-03T10:26:59.110Z,92680.47
2023-01-03T10:29:27.767Z,92674.56
2023-01-03T10:31:54.052Z,92677.97
2023-01-03T10:34:20.371Z,92676.25
2023-01-03T10:36:46.838Z,92672.94
2023-01-03T10:39:20.292Z,92673.59
2023-01-03T10:41:50.531Z,92675.88
2023-01-03T10:44:16.790Z,92672.22
2023-01-03T10:46:44.960Z,92671.69
2023-01-03T10:49:30.097Z,92675.47
2023-01-03T10:51:56.920Z,92666.66
2023-01-03T10:54:23.264Z,92676.34
2023-01-03T10:56:52.638Z,92681.28
2023-01-03T10:59:19.193Z,92682.72
2023-01-03T11:01:54.301Z,92669.75
2023-01-03T11:04:20.632Z,92659.34
2023-01-03T11:06:46.859Z,92662.69
2023-01-03T11:09:13.016Z,92660.34
2023-01-03T11:11:39.279Z,92662.63
2023-01-03T11:14:08.244Z,92660.19
2023-01-03T11:16:37.269Z,92660.28
2023-01-03T11:19:03.694Z,92662.41
2023-01-03T11:21:29.856Z,92657.19
2023-01-03T11:23:56.114Z,92656.84
2023-01-03T11:26:22.347Z,92653.88
2023-01-03T11:28:48.665Z,92653.59
2023-01-03T11:31:15.026Z,92650.03
2023-01-03T11:33:41.290Z,92647.09
2023-01-03T11:36:09.513Z,92642.63
2023-01-03T11:38:41.772Z,92645.91
2023-01-03T11:41:10.625Z,92643.59
2023-01-03T11:43:39.495Z,92634.53
2023-01-03T11:46:08.433Z,92636.31
2023-01-03T11:51:50.127Z,92635.28
2023-01-03T11:54:16.267Z,92640.25
2023-01-03T11:56:47.440Z,92628.56
2023-01-03T11:59:19.786Z,92626.75
2023-01-03T12:04:36.436Z,92618.84
2023-01-03T12:07:36.823Z,92611.28
2023-01-03T12:09:49.052Z,92607.66
2023-01-03T12:12:17.532Z,92601.00
2023-01-03T12:14:43.904Z,92607.06
2023-01-03T12:20:00.712Z,92606.81
2023-01-03T12:33:37.250Z,92584.63
2023-01-03T12:36:14.190Z,92590.44
2023-01-03T12:38:43.533Z,92590.94
2023-01-03T12:41:30.790Z,92590.69
2023-01-03T12:52:40.700Z,92573.59
2023-01-03T13:00:29.711Z,92583.16
2023-01-03T13:02:58.495Z,92585.09
2023-01-03T13:05:24.872Z,92589.84
2023-01-03T13:07:51.105Z,92592.13
2023-01-03T13:10:17.398Z,92592.13
2023-01-03T13:12:43.577Z,92588.72
2023-01-03T13:15:10.804Z,92590.56
2023-01-03T13:20:25.795Z,92595.41
2023-01-03T13:22:52.068Z,92584.34
2023-01-03T13:25:18.331Z,92590.25
2023-01-03T13:27:44.565Z,92591.44
2023-01-03T13:30:12.362Z,92596.19
2023-01-03T13:32:39.588Z,92591.31
2023-01-03T13:35:05.916Z,92592.66
2023-01-03T13:37:32.356Z,92592.75
2023-01-03T13:39:58.510Z,92590.22
2023-01-03T13:42:26.578Z,92589.78
2023-01-03T13:44:55.259Z,92582.03
2023-01-03T13:47:21.427Z,92585.34
2023-01-03T13:49:56.873Z,92586.13
2023-01-03T13:52:25.918Z,92584.31
2023-01-03T13:54:53.205Z,92600.50
2023-01-03T13:57:22.351Z,92593.69
2023-01-03T13:59:59.031Z,92587.31
2023-01-03T14:02:27.016Z,92598.50
2023-01-03T14:04:53.454Z,92597.78
2023-01-03T14:10:11.865Z,92598.34
2023-01-03T14:23:59.765Z,92594.59
2023-01-03T15:38:40.280Z,92657.31
2023-01-03T17:20:45.066Z,92727.69
2023-01-03T21:03:35.095Z,92785.16
2023-01-03T21:06:01.651Z,92781.81
2023-01-03T21:08:30.179Z,92777.41
2023-01-03T21:10:58.442Z,92777.84
2023-01-03T21:13:33.764Z,92780.41
2023-01-03T21:16:04.122Z,92770.81
2023-01-03T21:19:16.525Z,92771.09
2023-01-03T21:22:11.043Z,92783.66
2023-01-03T21:24:50.951Z,92789.97
2023-01-03T21:30:08.898Z,92790.31
2023-01-03T21:32:40.129Z,92782.22
2023-01-03T21:38:08.926Z,92785.19
2023-01-03T21:43:36.621Z,92791.84
2023-01-03T21:48:53.727Z,92787.38
2023-01-03T21:59:39.271Z,92808.97
2023-01-03T22:02:26.656Z,92817.13
2023-01-03T22:05:06.620Z,92819.78
2023-01-03T22:10:50.802Z,92815.34
2023-01-03T22:21:42.469Z,92837.88
2023-01-03T22:24:13.452Z,92842.66
2023-01-03T22:26:58.973Z,92850.75
2023-01-03T22:30:17.677Z,92856.22
2023-01-03T22:33:21.589Z,92851.47
2023-01-03T22:35:26.728Z,92851.81
2023-01-03T22:38:00.208Z,92850.28
2023-01-03T22:53:16.086Z,92849.91
2023-01-03T22:57:49.468Z,92855.81
2023-01-03T23:00:22.843Z,92849.25
2023-01-03T23:02:55.568Z,92850.28
2023-01-03T23:08:14.336Z,92838.97
2023-01-03T23:10:46.712Z,92841.16
2023-01-03T23:13:19.800Z,92840.41
2023-01-03T23:18:30.522Z,92839.94
2023-01-03T23:21:03.975Z,92835.91
2023-01-03T23:23:37.557Z,92833.97
2023-01-03T23:28:45.360Z,92832.94
2023-01-03T23:31:12.881Z,92835.50
2023-01-03T23:36:43.715Z,92825.66
2023-01-03T23:39:18.112Z,92830.22
2023-01-03T23:42:17.296Z,92827.97
